Yangon International Airport
VYYY : now visible

Airfield :











YOU CAN JOIN US ON...

 
LOGIN :

Register | Disclaimer

   EN    FR    IT 

 









Legend :    VFR   Marginal VFR   IFR   Intensive IFR   Very Intensive IFR
Visi :
Ceiling :
>= 8 km
>= 3000ft
5 to 8 km
1000 to 3000 ft
1500m to 5 km
500 to 1000 ft
800 to 1500m
200 to 500 ft
< 800m
< 200 ft
Symbols :   Thunderstorms  Fog  Heavy snow  Heavy precipitations  Wind > 20 kt






- Airport Elevation : 109 ft
- IATA code : RGN


VYYY - Yangon International

CURRENT METAR :
  • 170130Z 21004KT 6000 BKN018 FEW020CB BKN100 27/26 Q1007

EXPIRED METARs :
  • 170100Z 22003KT 6000 BKN018 FEW020CB BKN100 27/26 Q1007
  • 170030Z 21002KT 6000 BKN018 FEW020CB BKN100 27/26 Q1007
  • 170000Z 14003KT 6000 BKN018 FEW020CB OVC100 27/26 Q1006
  • 162300Z 19002KT 6000 BKN018 FEW020CB BKN100 27/26 Q1006
  • 162230Z 22002KT 6000 BKN018 FEW020CB BKN100 27/26 Q1006
  • 162200Z 21002KT 6000 BKN018 FEW020CB BKN100 27/26 Q1006
  • 162130Z 17002KT 6000 BKN018 FEW020CB BKN100 27/26 Q1006
  • 162100Z 15002KT 6000 BKN018 FEW020CB BKN100 27/26 Q1006

TAF TAF VYYY
Valid from the 17 at 00:00 until the 18 at 00:00 UTC


162300Z 1700/1724 24008KT 7000 BKN016 FEW018CB OVC100
TEMPO 1700/1706 23008KT 4000 RA
TEMPO 1706/1712 25008KT 4000 TSRA BKN014 FEW016CB OVC090
VYYF FIR / Asia



MET'MAP, your aeronautical weather chart ! - Copyright ORBIFLY December 2007 - Disclaimer

ORBIFLY MET'MAP TEAM :

Programming & Development : Alexandra Zaïnal
Original concept : Baudouin d'Aumeries
Technical & hardware support : Manuel Goepfert
Assistance : Marc-Olivier Méhu




SOURCES & CREDITS :

   NOAA       Earth
Advisory